createdAt,value
2022-11-02T00:01:30.776Z,5.10
2022-11-02T00:04:00.865Z,6.05
2022-11-02T00:06:30.906Z,6.47
2022-11-02T00:09:00.953Z,4.43
2022-11-02T00:11:31.158Z,4.15
2022-11-02T00:14:01.151Z,4.80
2022-11-02T00:16:31.217Z,3.75
2022-11-02T00:19:02.104Z,4.60
2022-11-02T00:21:43.992Z,6.22
2022-11-02T00:24:13.978Z,9.25
2022-11-02T00:26:44.043Z,3.88
2022-11-02T00:29:14.051Z,6.32
2022-11-02T00:31:44.054Z,5.88
2022-11-02T00:34:14.807Z,5.55
2022-11-02T00:36:46.112Z,8.75
2022-11-02T00:39:16.446Z,7.07
2022-11-02T00:41:47.689Z,8.27
2022-11-02T00:44:17.597Z,5.00
2022-11-02T00:46:47.498Z,6.78
2022-11-02T00:49:17.830Z,6.32
2022-11-02T00:51:48.491Z,9.38
2022-11-02T00:54:19.060Z,8.93
2022-11-02T00:56:49.058Z,7.03
2022-11-02T00:59:19.114Z,7.05
2022-11-02T01:01:50.657Z,6.95
2022-11-02T01:04:21.431Z,6.32
2022-11-02T01:06:51.417Z,6.43
2022-11-02T01:09:22.891Z,6.40
2022-11-02T01:11:53.989Z,8.52
2022-11-02T01:14:24.210Z,6.72
2022-11-02T01:16:54.275Z,7.15
2022-11-02T01:19:24.215Z,7.53
2022-11-02T01:21:54.119Z,5.32
2022-11-02T01:24:24.434Z,8.45
2022-11-02T01:26:54.994Z,8.40
2022-11-02T01:29:24.949Z,9.20
2022-11-02T01:31:54.992Z,7.40
2022-11-02T01:34:25.965Z,5.93
2022-11-02T01:36:56.410Z,9.07
2022-11-02T01:39:26.461Z,8.07
2022-11-02T01:41:56.687Z,13.48
2022-11-02T01:44:36.786Z,10.80
2022-11-02T01:47:10.357Z,8.85
2022-11-02T01:49:41.317Z,11.23
2022-11-02T01:52:21.206Z,9.60
2022-11-02T01:54:57.758Z,9.82
2022-11-02T01:57:27.775Z,9.60
2022-11-02T02:00:09.830Z,9.70
2022-11-02T02:02:55.071Z,12.50
2022-11-02T02:05:25.408Z,7.47
2022-11-02T02:07:55.871Z,9.93
2022-11-02T02:10:25.824Z,10.95
2022-11-02T02:12:55.781Z,9.55
2022-11-02T02:15:29.894Z,8.35
2022-11-02T02:18:02.482Z,10.00
2022-11-02T02:21:02.482Z,10.77
2022-11-02T02:23:47.521Z,13.60
2022-11-02T02:26:25.253Z,9.88
2022-11-02T02:29:10.539Z,11.93
2022-11-02T02:32:07.574Z,8.65
2022-11-02T02:35:00.196Z,13.57
2022-11-02T02:37:38.180Z,8.75
2022-11-02T02:40:20.652Z,11.35
2022-11-02T02:43:23.620Z,9.27
2022-11-02T02:45:59.676Z,9.68
2022-11-02T02:48:29.933Z,11.13
2022-11-02T02:51:08.918Z,9.10
2022-11-02T02:54:02.189Z,10.80
2022-11-02T02:56:34.326Z,27.60
2022-11-02T02:59:14.871Z,20.73
2022-11-02T03:01:46.402Z,25.40
2022-11-02T03:04:16.961Z,29.25
2022-11-02T03:06:50.060Z,30.42
2022-11-02T03:09:41.760Z,26.60
2022-11-02T03:12:12.186Z,23.15
2022-11-02T03:15:07.221Z,22.77
2022-11-02T03:18:04.149Z,19.85
2022-11-02T03:20:54.508Z,19.35
2022-11-02T03:23:24.620Z,20.42
2022-11-02T03:26:29.813Z,19.38
2022-11-02T03:29:35.172Z,20.23
2022-11-02T03:32:25.545Z,19.85
2022-11-02T03:34:58.643Z,19.33
2022-11-02T03:37:42.412Z,20.73
2022-11-02T03:40:37.207Z,18.15
2022-11-02T03:43:07.206Z,19.20
2022-11-02T03:45:46.252Z,17.33
2022-11-02T03:48:16.306Z,22.50
2022-11-02T03:50:48.398Z,17.70
2022-11-02T03:53:28.527Z,16.65
2022-11-02T03:56:02.195Z,16.60
2022-11-02T03:58:32.785Z,16.75
2022-11-02T04:01:05.181Z,19.48
2022-11-02T04:03:35.725Z,16.80
2022-11-02T04:06:05.833Z,19.60
2022-11-02T04:08:39.325Z,18.30
2022-11-02T04:11:30.156Z,14.30
2022-11-02T04:14:26.931Z,26.35
2022-11-02T04:17:27.117Z,33.50
2022-11-02T04:19:58.516Z,13.55
2022-11-02T04:22:47.882Z,13.35
2022-11-02T04:25:19.979Z,17.40
2022-11-02T04:28:19.266Z,14.05
2022-11-02T04:30:59.188Z,15.30
2022-11-02T04:33:36.347Z,15.70
2022-11-02T04:36:12.709Z,13.10
2022-11-02T04:38:43.696Z,17.83
2022-11-02T04:41:45.267Z,12.15
2022-11-02T04:44:37.560Z,10.73
2022-11-02T04:47:13.263Z,14.85
2022-11-02T04:49:43.782Z,9.57
2022-11-02T04:52:17.855Z,10.10
2022-11-02T04:54:52.124Z,12.00
2022-11-02T04:57:22.307Z,10.50
2022-11-02T04:59:52.796Z,11.75
2022-11-02T05:02:22.969Z,10.15
2022-11-02T05:04:53.054Z,12.38
2022-11-02T05:07:22.986Z,12.23
2022-11-02T05:09:53.522Z,11.30
2022-11-02T05:12:28.897Z,11.18
2022-11-02T05:15:00.837Z,8.70
2022-11-02T05:17:30.902Z,9.65
2022-11-02T05:20:00.885Z,11.45
2022-11-02T05:22:32.361Z,9.68
2022-11-02T05:25:02.476Z,9.63
2022-11-02T05:27:33.262Z,9.85
2022-11-02T05:30:03.894Z,10.93
2022-11-02T05:32:34.024Z,10.02
2022-11-02T05:35:05.335Z,11.02
2022-11-02T05:37:36.240Z,9.05
2022-11-02T05:40:07.095Z,11.52
2022-11-02T05:42:37.081Z,8.57
2022-11-02T05:45:07.540Z,8.70
2022-11-02T05:47:37.732Z,10.55
2022-11-02T05:50:08.229Z,11.43
2022-11-02T05:52:38.312Z,10.85
2022-11-02T05:55:08.888Z,8.30
2022-11-02T05:57:39.064Z,12.30
2022-11-02T06:00:10.013Z,12.13
2022-11-02T06:02:41.960Z,7.63
2022-11-02T06:05:11.984Z,9.77
2022-11-02T06:07:44.099Z,9.27
2022-11-02T06:10:14.052Z,10.82
2022-11-02T06:12:44.285Z,10.57
2022-11-02T06:15:14.358Z,7.80
2022-11-02T06:17:44.326Z,9.68
2022-11-02T06:20:14.401Z,8.68
2022-11-02T06:22:44.462Z,11.32
2022-11-02T06:25:14.603Z,13.02
2022-11-02T06:27:51.347Z,9.55
2022-11-02T06:30:21.520Z,8.15
2022-11-02T06:32:52.499Z,8.98
2022-11-02T06:35:23.438Z,9.68
2022-11-02T06:37:53.854Z,10.93
2022-11-02T06:40:26.516Z,9.18
2022-11-02T06:43:17.035Z,9.68
2022-11-02T06:45:47.942Z,9.57
2022-11-02T06:48:18.010Z,8.15
2022-11-02T06:50:48.025Z,9.52
2022-11-02T06:53:18.025Z,10.98
2022-11-02T06:55:52.833Z,10.15
2022-11-02T06:58:24.475Z,8.90
2022-11-02T07:01:02.264Z,12.82
2022-11-02T07:03:32.519Z,15.10
2022-11-02T07:06:02.805Z,11.85
2022-11-02T07:08:32.847Z,12.45
2022-11-02T07:11:03.210Z,13.68
2022-11-02T07:13:33.281Z,12.88
2022-11-02T07:16:03.265Z,11.57
2022-11-02T07:18:33.235Z,13.82
2022-11-02T07:21:03.736Z,10.57
2022-11-02T07:23:33.866Z,14.23
2022-11-02T07:26:04.209Z,14.23
2022-11-02T07:28:34.212Z,13.38
2022-11-02T07:31:04.237Z,8.52
2022-11-02T07:33:34.313Z,10.40
2022-11-02T07:36:06.632Z,12.82
2022-11-02T07:38:36.674Z,16.02
2022-11-02T07:41:06.792Z,13.23
2022-11-02T07:43:39.946Z,11.55
2022-11-02T07:46:27.918Z,12.60
2022-11-02T07:48:58.253Z,11.27
2022-11-02T07:51:28.686Z,10.15
2022-11-02T07:53:59.072Z,13.55
2022-11-02T07:56:29.143Z,9.88
2022-11-02T07:58:59.170Z,10.15
2022-11-02T08:01:29.360Z,7.72
2022-11-02T08:04:00.346Z,7.63
2022-11-02T08:06:30.874Z,11.52
2022-11-02T08:09:01.174Z,11.35
2022-11-02T08:11:31.636Z,11.20
2022-11-02T08:14:03.732Z,9.18
2022-11-02T08:16:33.596Z,10.07
2022-11-02T08:19:03.548Z,10.38
2022-11-02T08:21:33.551Z,10.57
2022-11-02T08:24:03.513Z,13.52
2022-11-02T08:26:33.827Z,9.80
2022-11-02T08:29:05.331Z,11.52
2022-11-02T08:31:35.837Z,8.30
2022-11-02T08:34:05.862Z,14.57
2022-11-02T08:36:38.033Z,16.48
2022-11-02T08:39:08.315Z,14.88
2022-11-02T08:41:38.330Z,10.88
2022-11-02T08:44:08.382Z,13.57
2022-11-02T08:46:39.044Z,11.30
2022-11-02T08:49:09.042Z,12.55
2022-11-02T08:51:38.978Z,12.50
2022-11-02T08:54:08.949Z,11.57
2022-11-02T08:56:38.898Z,14.07
2022-11-02T08:59:09.090Z,11.43
2022-11-02T09:01:41.348Z,13.75
2022-11-02T09:04:11.728Z,12.82
2022-11-02T09:06:41.691Z,12.38
2022-11-02T09:09:12.057Z,10.80
2022-11-02T09:11:42.045Z,12.05
2022-11-02T09:14:11.994Z,12.63
2022-11-02T09:16:42.113Z,14.70
2022-11-02T09:19:12.120Z,13.13
2022-11-02T09:21:42.173Z,9.43
2022-11-02T09:24:13.195Z,14.20
2022-11-02T09:26:43.067Z,12.32
2022-11-02T09:29:13.228Z,14.30
2022-11-02T09:31:43.639Z,13.90
2022-11-02T09:34:13.703Z,14.70
2022-11-02T09:36:43.692Z,14.65
2022-11-02T09:39:13.982Z,15.80
2022-11-02T09:41:58.982Z,14.32
2022-11-02T09:44:51.249Z,17.17
2022-11-02T09:50:14.086Z,14.52
2022-11-02T09:52:44.059Z,13.95
2022-11-02T09:55:26.211Z,15.10
2022-11-02T09:58:01.568Z,14.18
2022-11-02T10:00:33.834Z,13.98
2022-11-02T10:03:35.960Z,15.00
2022-11-02T10:06:10.461Z,12.98
2022-11-02T10:09:04.778Z,12.20
2022-11-02T10:11:59.494Z,16.75
2022-11-02T10:14:41.807Z,11.65
2022-11-02T10:17:24.027Z,10.73
2022-11-02T10:19:59.109Z,12.38
2022-11-02T10:22:38.164Z,14.75
2022-11-02T10:25:08.745Z,12.18
2022-11-02T10:27:40.245Z,14.85
2022-11-02T10:30:18.162Z,14.45
2022-11-02T10:32:51.925Z,13.88
2022-11-02T10:36:17.604Z,12.20
2022-11-02T10:39:01.037Z,11.68
2022-11-02T10:41:53.452Z,13.15
2022-11-02T10:44:45.429Z,13.80
2022-11-02T10:47:23.779Z,30.38
2022-11-02T10:50:11.921Z,17.15
2022-11-02T10:52:44.948Z,16.13
2022-11-02T10:55:21.546Z,21.75
2022-11-02T10:57:51.738Z,14.05
2022-11-02T11:00:33.264Z,16.13
2022-11-02T11:03:06.127Z,16.10
2022-11-02T11:05:37.394Z,15.73
2022-11-02T11:08:07.994Z,14.27
2022-11-02T11:10:39.730Z,14.52
2022-11-02T11:16:05.858Z,12.65
2022-11-02T11:21:31.229Z,10.32
2022-11-02T11:24:24.308Z,10.15
2022-11-02T11:27:04.329Z,10.48
2022-11-02T11:29:36.052Z,8.27
2022-11-02T11:32:06.137Z,14.52
2022-11-02T11:34:37.272Z,7.82
2022-11-02T11:37:11.729Z,8.15
2022-11-02T11:39:42.440Z,7.13
2022-11-02T11:42:23.247Z,7.07
2022-11-02T11:45:09.883Z,7.63
2022-11-02T11:47:40.856Z,8.52
2022-11-02T11:50:29.206Z,8.23
2022-11-02T11:53:25.398Z,8.43
2022-11-02T11:55:59.605Z,8.57
2022-11-02T11:58:31.209Z,8.07
2022-11-02T12:01:10.490Z,7.65
2022-11-02T12:03:57.846Z,7.15
2022-11-02T12:06:52.069Z,7.13
2022-11-02T12:09:36.800Z,7.90
2022-11-02T12:12:36.007Z,11.55
2022-11-02T12:15:43.915Z,6.90
2022-11-02T12:18:54.105Z,6.60
2022-11-02T12:21:43.028Z,9.07
2022-11-02T12:24:41.183Z,6.38
2022-11-02T12:27:53.421Z,7.75
2022-11-02T12:30:23.696Z,7.53
2022-11-02T12:33:08.733Z,6.93
2022-11-02T12:35:51.413Z,9.25
2022-11-02T12:38:33.583Z,6.88
2022-11-02T12:41:06.999Z,5.47
2022-11-02T12:43:50.836Z,6.13
2022-11-02T12:47:22.028Z,6.15
2022-11-02T12:50:04.815Z,8.32
2022-11-02T12:52:49.823Z,4.73
2022-11-02T12:55:48.449Z,6.07
2022-11-02T12:58:32.738Z,6.93
2022-11-02T13:01:23.803Z,6.28
2022-11-02T13:04:06.702Z,6.75
2022-11-02T13:06:45.756Z,5.93
2022-11-02T13:09:22.903Z,5.82
2022-11-02T13:12:19.458Z,6.47
2022-11-02T13:14:56.305Z,6.65
2022-11-02T13:17:49.093Z,5.68
2022-11-02T13:20:26.405Z,6.67
2022-11-02T13:23:13.326Z,7.30
2022-11-02T13:25:46.273Z,10.23
2022-11-02T13:28:18.452Z,7.72
2022-11-02T13:30:49.356Z,8.07
2022-11-02T13:33:28.703Z,7.70
2022-11-02T13:35:59.198Z,6.93
2022-11-02T13:38:52.192Z,6.30
2022-11-02T13:41:32.195Z,8.60
2022-11-02T13:44:20.487Z,7.07
2022-11-02T13:47:02.850Z,6.35
2022-11-02T13:49:50.412Z,9.93
2022-11-02T13:52:29.275Z,6.25
2022-11-02T13:55:02.223Z,6.78
2022-11-02T13:57:45.843Z,7.32
2022-11-02T14:02:58.602Z,7.22
2022-11-02T14:05:35.771Z,6.03
2022-11-02T14:08:08.457Z,7.10
2022-11-02T14:10:40.801Z,7.55
2022-11-02T14:13:15.351Z,6.53
2022-11-02T14:15:45.408Z,7.20
2022-11-02T14:18:16.997Z,7.82
2022-11-02T14:20:49.320Z,7.15
2022-11-02T14:23:50.006Z,6.53
2022-11-02T14:26:54.849Z,7.82
2022-11-02T14:29:52.347Z,7.10
2022-11-02T14:32:52.151Z,7.55
2022-11-02T14:35:41.995Z,9.85
2022-11-02T14:39:05.607Z,8.52
2022-11-02T14:41:58.198Z,6.97
2022-11-02T14:45:03.233Z,7.70
2022-11-02T14:47:35.023Z,8.38
2022-11-02T14:50:15.873Z,7.28
2022-11-02T14:52:56.534Z,7.95
2022-11-02T14:55:27.327Z,6.88
2022-11-02T14:58:11.281Z,10.25
2022-11-02T15:00:58.866Z,6.35
2022-11-02T15:03:29.829Z,10.18
2022-11-02T15:06:07.003Z,8.48
2022-11-02T15:08:39.680Z,6.88
2022-11-02T15:11:46.518Z,9.25
2022-11-02T15:14:41.235Z,9.25
2022-11-02T15:17:17.145Z,8.70
2022-11-02T15:19:54.932Z,8.57
2022-11-02T15:22:34.831Z,7.43
2022-11-02T15:25:14.511Z,7.38
2022-11-02T15:27:45.217Z,7.57
2022-11-02T15:30:26.765Z,6.47
2022-11-02T15:33:02.870Z,8.40
2022-11-02T15:35:40.187Z,7.25
2022-11-02T15:38:17.340Z,8.68
2022-11-02T15:40:50.436Z,7.93
2022-11-02T15:43:48.876Z,8.38
2022-11-02T15:46:56.577Z,14.63
2022-11-02T15:50:03.663Z,7.05
2022-11-02T15:53:21.554Z,14.65
2022-11-02T15:56:23.589Z,12.40
2022-11-02T15:59:09.174Z,16.55
2022-11-02T16:01:39.534Z,18.98
2022-11-02T16:04:09.964Z,18.08
2022-11-02T16:06:47.398Z,17.40
2022-11-02T16:09:50.202Z,12.15
2022-11-02T16:12:22.429Z,15.55
2022-11-02T16:14:57.052Z,9.63
2022-11-02T16:17:30.464Z,14.75
2022-11-02T16:22:42.574Z,13.73
2022-11-02T16:25:25.353Z,11.80
2022-11-02T16:27:55.374Z,9.40
2022-11-02T16:30:25.798Z,12.32
2022-11-02T16:33:01.711Z,7.90
2022-11-02T16:35:31.622Z,13.02
2022-11-02T16:38:02.008Z,7.43
2022-11-02T16:40:32.252Z,14.68
2022-11-02T16:43:02.295Z,13.43
2022-11-02T16:45:40.466Z,11.43
2022-11-02T16:48:25.153Z,9.63
2022-11-02T16:51:08.094Z,7.85
2022-11-02T16:53:40.609Z,13.25
2022-11-02T16:56:33.428Z,11.18
2022-11-02T16:59:07.903Z,8.85
2022-11-02T17:01:39.897Z,8.25
2022-11-02T17:04:33.112Z,10.40
2022-11-02T17:07:23.820Z,10.68
2022-11-02T17:09:58.749Z,10.13
2022-11-02T17:12:37.202Z,11.60
2022-11-02T17:15:17.436Z,23.30
2022-11-02T17:17:47.783Z,11.82
2022-11-02T17:20:25.527Z,14.43
2022-11-02T17:23:05.416Z,8.45
2022-11-02T17:25:35.936Z,11.32
2022-11-02T17:28:26.753Z,9.70
2022-11-02T17:30:56.816Z,13.65
2022-11-02T17:33:30.824Z,10.65
2022-11-02T17:36:08.877Z,10.00
2022-11-02T17:38:39.405Z,11.18
2022-11-02T17:41:34.628Z,11.00
2022-11-02T17:44:04.903Z,8.05
2022-11-02T17:46:34.883Z,8.18
2022-11-02T17:49:04.943Z,8.10
2022-11-02T17:51:35.048Z,9.85
2022-11-02T17:54:05.625Z,9.57
2022-11-02T17:56:35.603Z,6.65
2022-11-02T17:59:05.834Z,8.88
2022-11-02T18:01:35.873Z,11.35
2022-11-02T18:04:06.025Z,8.57
2022-11-02T18:06:36.015Z,9.80
2022-11-02T18:09:20.742Z,7.38
2022-11-02T18:11:51.005Z,9.32
2022-11-02T18:14:21.642Z,8.68
2022-11-02T18:16:53.918Z,9.40
2022-11-02T18:19:24.714Z,12.90
2022-11-02T18:21:55.289Z,7.00
2022-11-02T18:24:25.901Z,7.65
2022-11-02T18:26:55.977Z,7.38
2022-11-02T18:29:25.927Z,11.80
2022-11-02T18:31:56.231Z,8.80
2022-11-02T18:34:26.228Z,8.50
2022-11-02T18:36:56.085Z,10.88
2022-11-02T18:39:26.006Z,8.65
2022-11-02T18:41:55.944Z,7.93
2022-11-02T18:44:25.887Z,10.77
2022-11-02T18:46:56.363Z,7.57
2022-11-02T18:49:26.799Z,8.32
2022-11-02T18:51:56.707Z,7.88
2022-11-02T18:54:26.642Z,9.20
2022-11-02T18:56:56.565Z,9.18
2022-11-02T18:59:26.534Z,8.98
2022-11-02T19:01:56.646Z,8.85
2022-11-02T19:04:26.651Z,10.75
2022-11-02T19:07:16.287Z,8.45
2022-11-02T19:09:47.402Z,9.35
2022-11-02T19:12:21.821Z,10.20
2022-11-02T19:14:55.647Z,9.80
2022-11-02T19:17:26.899Z,9.60
2022-11-02T19:19:57.324Z,7.75
2022-11-02T19:22:27.942Z,8.43
2022-11-02T19:25:02.361Z,10.20
2022-11-02T19:27:32.384Z,7.65
2022-11-02T19:30:05.759Z,8.10
2022-11-02T19:35:05.386Z,9.57
2022-11-02T19:37:35.313Z,7.03
2022-11-02T19:40:05.799Z,7.82
2022-11-02T19:42:36.020Z,7.57
2022-11-02T19:45:06.867Z,7.60
2022-11-02T19:47:36.917Z,8.25
2022-11-02T19:50:07.582Z,9.00
2022-11-02T19:52:37.907Z,7.45
2022-11-02T19:55:08.723Z,8.52
2022-11-02T19:57:38.698Z,8.75
2022-11-02T20:00:10.157Z,7.72
2022-11-02T20:02:40.950Z,7.05
2022-11-02T20:05:12.576Z,9.38
2022-11-02T20:07:42.753Z,9.45
2022-11-02T20:10:13.468Z,7.97
2022-11-02T20:12:44.207Z,7.95
2022-11-02T20:15:14.782Z,7.43
2022-11-02T20:18:05.319Z,8.77
2022-11-02T20:20:35.129Z,8.05
2022-11-02T20:23:05.815Z,8.27
2022-11-02T20:25:38.684Z,8.20
2022-11-02T20:28:08.701Z,8.25
2022-11-02T20:30:44.977Z,8.65
2022-11-02T20:33:14.921Z,8.77
2022-11-02T20:35:46.555Z,8.85
2022-11-02T20:38:16.681Z,7.50
2022-11-02T20:40:46.750Z,10.57
2022-11-02T20:43:16.983Z,10.82
2022-11-02T20:45:47.132Z,7.93
2022-11-02T20:48:17.299Z,12.70
2022-11-02T20:50:47.331Z,9.32
2022-11-02T20:53:17.264Z,8.98
2022-11-02T20:55:47.641Z,11.60
2022-11-02T20:58:17.582Z,9.43
2022-11-02T21:00:50.770Z,8.07
2022-11-02T21:03:21.035Z,8.77
2022-11-02T21:05:53.828Z,10.18
2022-11-02T21:08:23.934Z,8.05
2022-11-02T21:10:58.067Z,7.70
2022-11-02T21:13:46.732Z,6.88
2022-11-02T21:16:17.245Z,6.78
2022-11-02T21:18:47.965Z,9.35
2022-11-02T21:21:19.927Z,10.68
2022-11-02T21:23:50.349Z,11.30
2022-11-02T21:26:20.360Z,9.55
2022-11-02T21:28:50.373Z,9.15
2022-11-02T21:31:22.684Z,9.45
2022-11-02T21:33:52.659Z,9.02
2022-11-02T21:36:22.640Z,8.05
2022-11-02T21:38:52.605Z,8.80
2022-11-02T21:41:27.355Z,9.50
2022-11-02T21:43:57.658Z,7.97
2022-11-02T21:46:27.663Z,8.20
2022-11-02T21:48:57.881Z,10.13
2022-11-02T21:51:29.721Z,8.80
2022-11-02T21:53:59.723Z,10.02
2022-11-02T21:56:32.940Z,9.45
2022-11-02T21:59:03.275Z,6.65
2022-11-02T22:01:46.051Z,9.20
2022-11-02T22:04:26.311Z,7.68
2022-11-02T22:06:57.208Z,6.88
2022-11-02T22:09:27.264Z,9.00
2022-11-02T22:12:16.103Z,8.60
2022-11-02T22:14:46.242Z,7.97
2022-11-02T22:17:35.408Z,7.47
2022-11-02T22:20:07.123Z,9.73
2022-11-02T22:22:37.934Z,8.70
2022-11-02T22:25:08.347Z,7.95
2022-11-02T22:27:38.402Z,8.48
2022-11-02T22:30:08.807Z,10.55
2022-11-02T22:32:39.530Z,10.32
2022-11-02T22:35:10.222Z,8.65
2022-11-02T22:37:58.855Z,9.52
2022-11-02T22:40:28.992Z,10.23
2022-11-02T22:42:59.667Z,7.72
2022-11-02T22:45:29.710Z,11.07
2022-11-02T22:47:59.717Z,8.65
2022-11-02T22:50:30.002Z,11.07
2022-11-02T22:53:01.069Z,9.50
2022-11-02T22:55:32.686Z,14.25
2022-11-02T22:58:02.873Z,10.57
2022-11-02T23:00:32.837Z,8.25
2022-11-02T23:03:03.500Z,9.32
2022-11-02T23:05:33.980Z,11.43
2022-11-02T23:08:04.267Z,11.80
2022-11-02T23:10:54.442Z,8.70
2022-11-02T23:13:25.767Z,9.82
2022-11-02T23:16:22.342Z,8.30
2022-11-02T23:19:28.536Z,10.93
2022-11-02T23:22:21.850Z,8.85
2022-11-02T23:25:15.364Z,10.80
2022-11-02T23:28:07.490Z,10.68
2022-11-02T23:30:56.563Z,10.98
2022-11-02T23:33:30.733Z,12.75
2022-11-02T23:36:13.574Z,11.52
2022-11-02T23:39:06.444Z,9.57
2022-11-02T23:41:39.964Z,13.27
2022-11-02T23:44:12.971Z,9.57
2022-11-02T23:46:52.075Z,10.50
2022-11-02T23:49:22.093Z,12.73
2022-11-02T23:52:10.450Z,9.73
2022-11-02T23:54:58.297Z,9.02
2022-11-02T23:57:28.246Z,10.50
2022-11-02T23:59:58.196Z,11.50
